createdAt,value
2022-10-02T00:02:41.574Z,97.35
2022-10-02T00:07:53.487Z,97.41
2022-10-02T00:12:59.800Z,97.45
2022-10-02T00:18:11.763Z,97.83
2022-10-02T00:23:31.504Z,97.76
2022-10-02T00:29:10.512Z,97.91
2022-10-02T00:34:33.691Z,97.92
2022-10-02T00:39:45.571Z,98.30
2022-10-02T00:45:24.241Z,98.49
2022-10-02T00:50:44.727Z,98.61
2022-10-02T00:56:21.515Z,98.84
2022-10-02T01:01:32.698Z,98.98
2022-10-02T01:06:34.197Z,98.95
2022-10-02T01:11:36.403Z,99.21
2022-10-02T01:16:39.151Z,99.35
2022-10-02T01:21:50.734Z,99.24
2022-10-02T01:26:51.723Z,99.33
2022-10-02T01:31:53.722Z,99.28
2022-10-02T01:36:55.266Z,98.97
2022-10-02T01:41:56.446Z,99.12
2022-10-02T01:47:19.024Z,99.16
2022-10-02T01:52:57.482Z,99.22
2022-10-02T01:58:36.238Z,99.22
2022-10-02T02:03:56.199Z,99.24
2022-10-02T02:09:05.314Z,99.24
2022-10-02T02:14:15.198Z,99.30
2022-10-02T02:19:34.815Z,99.00
2022-10-02T02:24:44.503Z,98.95
2022-10-02T02:29:49.475Z,99.08
2022-10-02T02:34:57.248Z,99.17
2022-10-02T02:40:04.081Z,99.10
2022-10-02T02:45:18.067Z,98.99
2022-10-02T02:50:32.471Z,98.95
2022-10-02T02:55:58.015Z,98.89
2022-10-02T03:00:59.090Z,98.65
2022-10-02T03:06:21.079Z,98.66
2022-10-02T03:11:52.954Z,98.88
2022-10-02T03:17:15.674Z,99.06
2022-10-02T03:22:43.609Z,99.05
2022-10-02T03:27:52.980Z,99.06
2022-10-02T03:32:56.555Z,99.01
2022-10-02T03:38:07.102Z,99.15
2022-10-02T03:43:17.386Z,99.12
2022-10-02T03:48:18.509Z,99.21
2022-10-02T03:53:21.271Z,99.07
2022-10-02T03:58:25.655Z,99.01
2022-10-02T04:03:32.079Z,99.16
2022-10-02T04:08:41.665Z,99.22
2022-10-02T04:14:09.422Z,99.49
2022-10-02T04:19:21.852Z,99.65
2022-10-02T04:24:32.928Z,99.67
2022-10-02T04:29:40.522Z,99.87
2022-10-02T04:34:41.999Z,99.87
2022-10-02T04:40:06.510Z,99.79
2022-10-02T04:45:33.718Z,99.87
2022-10-02T04:50:41.329Z,99.74
2022-10-02T04:56:16.217Z,99.85
2022-10-02T05:01:25.992Z,99.86
2022-10-02T05:07:05.319Z,99.98
2022-10-02T05:12:16.026Z,99.99
2022-10-02T05:17:44.440Z,99.93
2022-10-02T05:23:00.526Z,99.94
2022-10-02T05:28:20.958Z,99.88
2022-10-02T05:33:31.058Z,99.96
2022-10-02T05:38:56.776Z,99.79
2022-10-02T05:44:05.594Z,99.49
2022-10-02T05:49:34.341Z,99.28
2022-10-02T05:54:48.857Z,99.21
2022-10-02T06:00:15.332Z,99.06
2022-10-02T06:05:23.085Z,98.63
2022-10-02T06:10:34.784Z,98.38
2022-10-02T06:16:13.610Z,97.52
2022-10-02T06:21:41.001Z,96.61
2022-10-02T06:26:46.889Z,95.99
2022-10-02T06:32:01.772Z,95.47
2022-10-02T06:37:17.680Z,95.02
2022-10-02T06:42:56.389Z,95.00
2022-10-02T06:48:24.900Z,94.12
2022-10-02T06:53:45.317Z,93.49
2022-10-02T06:59:05.922Z,93.04
2022-10-02T07:04:25.799Z,92.07
2022-10-02T07:09:45.734Z,91.88
2022-10-02T07:15:25.319Z,91.18
2022-10-02T07:21:03.765Z,88.56
2022-10-02T07:26:24.915Z,87.86
2022-10-02T07:32:03.652Z,87.28
2022-10-02T07:37:43.335Z,86.90
2022-10-02T07:43:09.498Z,86.90
2022-10-02T07:48:41.153Z,86.14
2022-10-02T07:53:56.100Z,85.23
2022-10-02T07:59:06.515Z,85.40
2022-10-02T08:04:37.108Z,85.40
2022-10-02T08:09:48.165Z,85.41
2022-10-02T08:14:54.853Z,85.70
2022-10-02T08:20:29.380Z,85.46
2022-10-02T08:25:40.426Z,84.05
2022-10-02T08:30:42.110Z,83.30
2022-10-02T08:36:20.941Z,81.26
2022-10-02T08:41:36.027Z,81.45
2022-10-02T08:47:10.306Z,81.05
2022-10-02T08:52:36.522Z,80.46
2022-10-02T08:58:14.821Z,80.30
2022-10-02T09:03:32.728Z,79.30
2022-10-02T09:09:12.072Z,78.39
2022-10-02T09:14:38.047Z,78.83
2022-10-02T09:19:59.297Z,76.53
2022-10-02T09:25:37.903Z,75.15
2022-10-02T09:31:18.485Z,74.08
2022-10-02T09:36:45.152Z,73.91
2022-10-02T09:42:08.180Z,73.98
2022-10-02T09:47:18.260Z,72.59
2022-10-02T09:52:58.649Z,70.84
2022-10-02T09:58:18.326Z,70.79
2022-10-02T10:03:28.626Z,71.74
2022-10-02T10:09:08.079Z,72.77
2022-10-02T10:14:43.344Z,72.02
2022-10-02T10:20:22.406Z,71.64
2022-10-02T10:25:35.137Z,71.02
2022-10-02T10:31:01.417Z,69.06
2022-10-02T10:36:52.947Z,68.72
2022-10-02T10:42:06.971Z,69.46
2022-10-02T10:47:28.579Z,69.92
2022-10-02T10:52:44.944Z,70.09
2022-10-02T10:58:20.456Z,69.68
2022-10-02T11:03:44.206Z,68.69
2022-10-02T11:09:12.944Z,66.60
2022-10-02T11:14:51.802Z,64.93
2022-10-02T11:20:18.361Z,63.82
2022-10-02T11:25:57.245Z,64.75
2022-10-02T11:31:36.718Z,64.65
2022-10-02T11:36:43.716Z,63.81
2022-10-02T11:42:05.079Z,65.17
2022-10-02T11:47:08.862Z,65.63
2022-10-02T11:52:17.414Z,65.59
2022-10-02T11:57:56.399Z,65.79
2022-10-02T12:03:23.731Z,66.32
2022-10-02T12:08:46.279Z,66.14
2022-10-02T12:14:26.624Z,65.59
2022-10-02T12:20:16.970Z,64.48
2022-10-02T12:25:50.657Z,64.68
2022-10-02T12:31:04.494Z,64.80
2022-10-02T12:36:37.380Z,68.41
2022-10-02T12:42:16.472Z,71.79
2022-10-02T12:47:50.995Z,74.10
2022-10-02T12:53:11.159Z,75.67
2022-10-02T12:58:37.261Z,76.33
2022-10-02T13:04:12.607Z,76.52
2022-10-02T13:09:33.693Z,76.84
2022-10-02T13:15:02.235Z,77.07
2022-10-02T13:20:09.954Z,77.50
2022-10-02T13:25:33.648Z,78.10
2022-10-02T13:30:52.310Z,79.17
2022-10-02T13:36:00.850Z,79.49
2022-10-02T13:41:40.115Z,79.67
2022-10-02T13:47:00.266Z,80.02
2022-10-02T13:52:39.169Z,80.62
2022-10-02T13:57:51.838Z,81.49
2022-10-02T14:03:05.812Z,80.72
2022-10-02T14:08:35.040Z,79.51
2022-10-02T14:14:03.038Z,79.56
2022-10-02T14:19:24.664Z,79.59
2022-10-02T14:24:56.603Z,80.07
2022-10-02T14:30:16.577Z,79.10
2022-10-02T14:35:45.798Z,79.19
2022-10-02T14:40:55.055Z,79.38
2022-10-02T14:46:21.089Z,80.39
2022-10-02T14:51:55.843Z,81.48
2022-10-02T14:56:59.369Z,81.64
2022-10-02T15:02:08.860Z,81.59
2022-10-02T15:07:13.305Z,81.32
2022-10-02T15:12:21.597Z,81.44
2022-10-02T15:17:57.656Z,81.37
2022-10-02T15:23:06.567Z,81.46
2022-10-02T15:28:45.207Z,81.52
2022-10-02T15:34:25.539Z,81.81
2022-10-02T15:40:08.074Z,82.04
2022-10-02T15:45:32.622Z,82.52
2022-10-02T15:50:46.302Z,83.14
2022-10-02T15:56:25.540Z,83.83
2022-10-02T16:01:39.105Z,84.33
2022-10-02T16:06:52.849Z,85.03
2022-10-02T16:12:03.229Z,85.61
2022-10-02T16:17:31.796Z,86.40
2022-10-02T16:22:48.031Z,87.08
2022-10-02T16:28:26.905Z,88.30
2022-10-02T16:33:42.671Z,88.79
2022-10-02T16:38:55.414Z,89.24
2022-10-02T16:44:15.382Z,89.94
2022-10-02T16:49:56.254Z,90.17
2022-10-02T16:55:31.996Z,90.16
2022-10-02T17:00:40.235Z,90.38
2022-10-02T17:06:07.664Z,90.25
2022-10-02T17:11:19.233Z,90.38
2022-10-02T17:16:32.186Z,90.43
2022-10-02T17:21:36.366Z,90.91
2022-10-02T17:26:46.735Z,91.18
2022-10-02T17:31:53.302Z,91.40
2022-10-02T17:37:20.169Z,91.50
2022-10-02T17:42:43.060Z,91.63
2022-10-02T17:48:20.902Z,92.07
2022-10-02T17:53:59.739Z,92.14
2022-10-02T17:59:19.268Z,92.08
2022-10-02T18:04:58.550Z,92.38
2022-10-02T18:10:27.949Z,92.59
2022-10-02T18:16:06.723Z,92.48
2022-10-02T18:21:26.649Z,92.84
2022-10-02T18:27:05.764Z,92.74
2022-10-02T18:32:30.950Z,92.99
2022-10-02T18:37:44.648Z,93.00
2022-10-02T18:43:23.358Z,93.05
2022-10-02T18:49:02.056Z,93.31
2022-10-02T18:54:22.499Z,93.14
2022-10-02T19:00:01.281Z,93.25
2022-10-02T19:05:09.418Z,93.26
2022-10-02T19:10:29.714Z,93.19
2022-10-02T19:15:32.208Z,93.52
2022-10-02T19:20:53.981Z,93.43
2022-10-02T19:26:00.374Z,93.55
2022-10-02T19:31:05.732Z,93.66
2022-10-02T19:36:15.049Z,93.49
2022-10-02T19:41:17.918Z,93.83
2022-10-02T19:46:28.485Z,93.71
2022-10-02T19:51:41.638Z,93.92
2022-10-02T19:56:44.540Z,94.27
2022-10-02T20:01:53.683Z,94.50
2022-10-02T20:06:57.274Z,94.82
2022-10-02T20:12:18.535Z,94.88
2022-10-02T20:17:20.224Z,95.24
2022-10-02T20:22:39.846Z,95.69
2022-10-02T20:27:53.583Z,95.92
2022-10-02T20:33:07.854Z,96.41
2022-10-02T20:38:24.708Z,96.92
2022-10-02T20:43:35.316Z,97.39
2022-10-02T20:49:13.783Z,97.68
2022-10-02T20:54:37.554Z,98.15
2022-10-02T21:00:16.638Z,98.27
2022-10-02T21:05:36.659Z,98.81
2022-10-02T21:11:04.509Z,98.95
2022-10-02T21:16:14.023Z,99.45
2022-10-02T21:21:35.308Z,99.19
2022-10-02T21:26:55.010Z,99.38
2022-10-02T21:32:23.934Z,99.43
2022-10-02T21:37:54.816Z,99.74
2022-10-02T21:43:10.246Z,99.30
2022-10-02T21:48:48.991Z,99.26
2022-10-02T21:54:09.225Z,99.89
2022-10-02T21:59:41.214Z,99.88
2022-10-02T22:05:04.199Z,99.89
2022-10-02T22:10:10.209Z,99.68
2022-10-02T22:15:23.017Z,99.47
2022-10-02T22:20:38.817Z,99.48
2022-10-02T22:25:45.817Z,99.53
2022-10-02T22:31:23.250Z,99.64
2022-10-02T22:36:47.667Z,99.62
2022-10-02T22:41:51.934Z,99.77
2022-10-02T22:47:05.029Z,99.90
2022-10-02T22:52:07.162Z,99.80
2022-10-02T22:57:37.451Z,99.71
2022-10-02T23:03:12.534Z,99.82
2022-10-02T23:08:37.585Z,99.75
2022-10-02T23:13:55.889Z,99.70
2022-10-02T23:19:26.243Z,99.53
2022-10-02T23:24:33.804Z,99.47
2022-10-02T23:29:53.259Z,99.43
2022-10-02T23:35:13.186Z,99.52
2022-10-02T23:41:12.140Z,99.41
2022-10-02T23:46:19.244Z,99.52
2022-10-02T23:51:57.589Z,99.43
2022-10-02T23:57:11.935Z,99.54
